createdAt,value
2023-05-04T00:00:00.187Z, 78.2
2023-05-04T00:02:00.126Z, 78.2
2023-05-04T00:04:00.328Z, 78.7
2023-05-04T00:06:00.131Z, 79.2
2023-05-04T00:08:00.122Z, 79.8
2023-05-04T00:10:00.145Z, 79.6
2023-05-04T00:12:00.136Z, 79.9
2023-05-04T00:14:00.116Z, 80.6
2023-05-04T00:16:01.165Z, 81.5
2023-05-04T00:18:00.220Z, 82
2023-05-04T00:20:00.098Z, 81.8
2023-05-04T00:22:00.066Z, 81.3
2023-05-04T00:24:00.064Z, 80.8
2023-05-04T00:26:00.082Z, 80.3
2023-05-04T00:28:00.058Z, 80.5
2023-05-04T00:30:00.083Z, 80.8
2023-05-04T00:32:00.244Z, 81
2023-05-04T00:34:00.094Z, 81.4
2023-05-04T00:36:00.072Z, 81.5
2023-05-04T00:38:00.084Z, 81.2
2023-05-04T00:40:00.089Z, 80.9
2023-05-04T00:42:00.077Z, 80.3
2023-05-04T00:44:00.083Z, 80.6
2023-05-04T00:46:00.111Z, 80.6
2023-05-04T00:48:00.162Z, 80.9
2023-05-04T00:50:00.141Z, 81.5
2023-05-04T00:52:00.130Z, 82.1
2023-05-04T00:54:00.120Z, 82.2
2023-05-04T00:56:00.112Z, 81.9
2023-05-04T00:58:00.122Z, 82
2023-05-04T01:00:00.122Z, 82.6
2023-05-04T01:02:00.131Z, 83.1
2023-05-04T01:04:00.218Z, 83
2023-05-04T01:06:00.142Z, 82.7
2023-05-04T01:08:00.149Z, 82.9
2023-05-04T01:10:00.158Z, 82.7
2023-05-04T01:12:00.168Z, 82.9
2023-05-04T01:14:00.136Z, 83.4
2023-05-04T01:16:00.172Z, 83
2023-05-04T01:18:00.156Z, 82.8
2023-05-04T01:20:00.057Z, 83.1
2023-05-04T01:22:00.055Z, 83
2023-05-04T01:24:00.044Z, 83.2
2023-05-04T01:26:00.035Z, 81.9
2023-05-04T01:28:00.060Z, 81.7
2023-05-04T01:30:00.067Z, 82.8
2023-05-04T01:32:00.048Z, 82.9
2023-05-04T01:34:00.059Z, 82.6
2023-05-04T01:36:00.050Z, 82.4
2023-05-04T01:38:00.061Z, 82.7
2023-05-04T01:40:00.083Z, 83.4
2023-05-04T01:42:00.061Z, 84.4
2023-05-04T01:44:00.042Z, 85.5
2023-05-04T01:46:00.146Z, 86.5
2023-05-04T01:48:00.153Z, 87.2
2023-05-04T01:50:00.121Z, 87.8
2023-05-04T01:52:00.128Z, 88.1
2023-05-04T01:54:00.161Z, 87.8
2023-05-04T01:56:00.131Z, 87.1
2023-05-04T01:58:00.140Z, 86.8
2023-05-04T02:00:00.159Z, 85.9
2023-05-04T02:02:00.347Z, 85.3
2023-05-04T02:04:00.342Z, 85
2023-05-04T02:06:00.111Z, 85
2023-05-04T02:08:00.131Z, 84.9
2023-05-04T02:10:00.137Z, 85.2
2023-05-04T02:12:00.101Z, 84.6
2023-05-04T02:14:00.090Z, 83.8
2023-05-04T02:16:00.197Z, 83.8
2023-05-04T02:18:00.156Z, 84.3
2023-05-04T02:20:00.065Z, 84.1
2023-05-04T02:22:00.066Z, 84.2
2023-05-04T02:24:00.116Z, 84.1
2023-05-04T02:26:00.056Z, 84.4
2023-05-04T02:28:00.052Z, 84.8
2023-05-04T02:30:00.091Z, 85.4
2023-05-04T02:32:00.136Z, 86
2023-05-04T02:34:00.040Z, 86.6
2023-05-04T02:36:00.063Z, 87.3
2023-05-04T02:38:00.057Z, 88
2023-05-04T02:40:00.082Z, 87.1
2023-05-04T02:42:00.069Z, 86.5
2023-05-04T02:44:00.035Z, 86.4
2023-05-04T02:46:00.145Z, 86.9
2023-05-04T02:48:00.158Z, 87.1
2023-05-04T02:50:00.128Z, 87.2
2023-05-04T02:52:00.145Z, 85.7
2023-05-04T02:54:00.137Z, 86.2
2023-05-04T02:56:00.127Z, 87.3
2023-05-04T02:58:00.113Z, 87.3
2023-05-04T03:00:00.115Z, 87.2
2023-05-04T03:02:00.115Z, 86.7
2023-05-04T03:04:00.182Z, 86.1
2023-05-04T03:06:00.139Z, 85.8
2023-05-04T03:08:00.144Z, 85.5
2023-05-04T03:10:00.161Z, 85.3
2023-05-04T03:12:00.156Z, 86.2
2023-05-04T03:14:00.148Z, 86.8
2023-05-04T03:16:00.154Z, 86.7
2023-05-04T03:18:00.190Z, 86.5
2023-05-04T03:20:00.071Z, 86.7
2023-05-04T03:22:00.077Z, 87.1
2023-05-04T03:24:00.094Z, 87.3
2023-05-04T03:26:00.058Z, 87.8
2023-05-04T03:28:00.057Z, 87.7
2023-05-04T03:30:00.062Z, 86.1
2023-05-04T03:32:00.100Z, 84.8
2023-05-04T03:34:00.116Z, 83.7
2023-05-04T03:36:00.070Z, 84
2023-05-04T03:38:00.044Z, 86.2
2023-05-04T03:40:00.054Z, 88.4
2023-05-04T03:42:00.066Z, 89.3
2023-05-04T03:44:00.051Z, 89.1
2023-05-04T03:46:00.125Z, 88.4
2023-05-04T03:48:00.219Z, 88
2023-05-04T03:50:00.135Z, 88.4
2023-05-04T03:52:00.118Z, 88.5
2023-05-04T03:54:00.104Z, 88
2023-05-04T03:56:00.130Z, 87.2
2023-05-04T03:58:00.155Z, 86.6
2023-05-04T04:00:00.151Z, 85.6
2023-05-04T04:02:00.237Z, 85.3
2023-05-04T04:04:00.285Z, 85.2
2023-05-04T04:06:00.159Z, 85.3
2023-05-04T04:08:00.165Z, 85.8
2023-05-04T04:10:00.148Z, 86.3
2023-05-04T04:12:00.161Z, 87.3
2023-05-04T04:14:00.119Z, 88.2
2023-05-04T04:16:00.222Z, 89.1
2023-05-04T04:18:00.133Z, 89.7
2023-05-04T04:20:00.057Z, 89.8
2023-05-04T04:22:00.063Z, 89.7
2023-05-04T04:24:00.083Z, 89.7
2023-05-04T04:26:00.055Z, 89.4
2023-05-04T04:28:00.064Z, 89.1
2023-05-04T04:30:00.062Z, 89.3
2023-05-04T04:32:00.095Z, 89.5
2023-05-04T04:34:00.099Z, 89.2
2023-05-04T04:36:00.050Z, 88.8
2023-05-04T04:38:02.247Z, 87.9
2023-05-04T04:40:00.058Z, 86.8
2023-05-04T04:42:00.111Z, 86.3
2023-05-04T04:44:00.068Z, 85.7
2023-05-04T04:46:00.117Z, 85.5
2023-05-04T04:48:00.216Z, 85
2023-05-04T04:50:00.152Z, 85.2
2023-05-04T04:52:00.121Z, 85.7
2023-05-04T04:54:00.144Z, 86.1
2023-05-04T04:56:00.147Z, 85.9
2023-05-04T04:58:00.155Z, 84.7
2023-05-04T05:00:00.155Z, 85.5
2023-05-04T05:02:00.186Z, 86.1
2023-05-04T05:04:00.113Z, 86.1
2023-05-04T05:06:00.133Z, 86.4
2023-05-04T05:08:00.134Z, 86.1
2023-05-04T05:10:00.148Z, 85.2
2023-05-04T05:12:00.119Z, 84.3
2023-05-04T05:14:00.134Z, 84.8
2023-05-04T05:16:00.165Z, 84.9
2023-05-04T05:18:00.206Z, 83.8
2023-05-04T05:20:00.108Z, 82.5
2023-05-04T05:22:00.079Z, 81.2
2023-05-04T05:24:00.073Z, 79.9
2023-05-04T05:26:02.631Z, 80.6
2023-05-04T05:28:00.059Z, 82.8
2023-05-04T05:30:00.113Z, 84.5
2023-05-04T05:32:00.059Z, 85.5
2023-05-04T05:34:00.058Z, 85.6
2023-05-04T05:36:00.104Z, 85.4
2023-05-04T05:38:00.107Z, 85.9
2023-05-04T05:40:00.084Z, 85.6
2023-05-04T05:42:00.067Z, 86
2023-05-04T05:44:00.051Z, 85.7
2023-05-04T05:46:00.085Z, 86.1
2023-05-04T05:48:00.172Z, 86.9
2023-05-04T05:50:00.122Z, 87.6
2023-05-04T05:52:00.096Z, 88.7
2023-05-04T05:54:00.146Z, 89.7
2023-05-04T05:56:00.132Z, 90.3
2023-05-04T05:58:00.112Z, 90.2
2023-05-04T06:00:00.196Z, 90
2023-05-04T06:02:00.124Z, 89.4
2023-05-04T06:04:00.399Z, 87.5
2023-05-04T06:06:00.180Z, 85.7
2023-05-04T06:08:00.125Z, 84.4
2023-05-04T06:10:00.183Z, 83.5
2023-05-04T06:12:00.182Z, 81.3
2023-05-04T06:14:00.138Z, 76.3
2023-05-04T06:16:00.236Z, 74.5
2023-05-04T06:18:00.132Z, 73
2023-05-04T06:20:00.061Z, 71.8
2023-05-04T06:22:00.048Z, 69.6
2023-05-04T06:24:00.057Z, 68.2
2023-05-04T06:26:00.047Z, 66.6
2023-05-04T06:28:00.072Z, 64.6
2023-05-04T06:30:00.056Z, 64.9
2023-05-04T06:32:00.129Z, 65.3
2023-05-04T06:34:00.065Z, 63.2
2023-05-04T06:36:00.064Z, 61.9
2023-05-04T06:38:00.050Z, 61.9
2023-05-04T06:40:00.046Z, 64.1
2023-05-04T06:42:00.063Z, 63.1
2023-05-04T06:44:00.044Z, 63
2023-05-04T06:46:00.181Z, 61
2023-05-04T06:48:00.187Z, 60.5
2023-05-04T06:50:00.140Z, 60.1
2023-05-04T06:52:00.114Z, 58
2023-05-04T06:56:00.131Z, 58.6
2023-05-04T06:58:00.156Z, 58.5
2023-05-04T07:00:00.161Z, 59.1
2023-05-04T07:02:00.115Z, 58.1
2023-05-04T07:04:00.294Z, 57.1
2023-05-04T07:06:00.110Z, 55.7
2023-05-04T07:08:00.104Z, 56.8
2023-05-04T07:10:00.121Z, 56.9
2023-05-04T07:12:00.143Z, 57.9
2023-05-04T07:14:00.107Z, 58.5
2023-05-04T07:16:00.133Z, 59.9
2023-05-04T07:18:00.164Z, 60.3
2023-05-04T07:20:00.089Z, 59.3
2023-05-04T07:22:00.090Z, 59.9
2023-05-04T07:24:00.100Z, 60.3
2023-05-04T07:26:00.062Z, 61.8
2023-05-04T07:28:00.064Z, 63.4
2023-05-04T07:30:00.080Z, 63.8
2023-05-04T07:32:00.109Z, 63.5
2023-05-04T07:34:00.077Z, 63.6
2023-05-04T07:36:00.057Z, 63.7
2023-05-04T07:38:00.056Z, 63.3
2023-05-04T07:40:00.056Z, 63.9
2023-05-04T07:42:00.130Z, 65.5
2023-05-04T07:44:00.045Z, 64.4
2023-05-04T07:46:00.098Z, 64
2023-05-04T07:48:00.155Z, 62.5
2023-05-04T07:50:00.120Z, 60.7
2023-05-04T07:52:00.132Z, 59.1
2023-05-04T07:54:00.137Z, 60.4
2023-05-04T07:56:00.132Z, 61.5
2023-05-04T07:58:00.134Z, 58.6
2023-05-04T08:00:00.139Z, 57.5
2023-05-04T08:02:00.172Z, 56.3
2023-05-04T08:04:00.120Z, 55.9
2023-05-04T08:06:00.118Z, 56.2
2023-05-04T08:08:00.132Z, 55.7
2023-05-04T08:10:00.096Z, 54.8
2023-05-04T08:12:00.156Z, 56.3
2023-05-04T08:14:00.109Z, 56.4
2023-05-04T08:16:00.112Z, 54.8
2023-05-04T08:18:00.161Z, 52.3
2023-05-04T08:20:00.094Z, 51.9
2023-05-04T08:22:00.072Z, 50.8
2023-05-04T08:24:00.097Z, 50
2023-05-04T08:26:00.063Z, 51.1
2023-05-04T08:28:00.053Z, 52
2023-05-04T08:30:00.080Z, 51.8
2023-05-04T08:32:00.250Z, 50.9
2023-05-04T08:34:00.056Z, 51.2
2023-05-04T08:36:00.073Z, 51.6
2023-05-04T08:38:00.081Z, 50.8
2023-05-04T08:40:00.069Z, 49.8
2023-05-04T08:42:00.061Z, 49.2
2023-05-04T08:44:00.055Z, 49.7
2023-05-04T08:46:00.135Z, 47.8
2023-05-04T08:48:00.223Z, 48
2023-05-04T08:50:00.156Z, 49.1
2023-05-04T08:52:00.110Z, 48.9
2023-05-04T08:54:00.118Z, 49.1
2023-05-04T08:56:00.148Z, 48.1
2023-05-04T08:58:00.135Z, 43.6
2023-05-04T09:00:00.144Z, 42.9
2023-05-04T09:02:00.190Z, 48.1
2023-05-04T09:04:00.171Z, 41.4
2023-05-04T09:06:00.116Z, 41.4
2023-05-04T09:08:00.104Z, 41.1
2023-05-04T09:10:00.161Z, 41.8
2023-05-04T09:12:00.128Z, 39.8
2023-05-04T09:14:00.162Z, 39.2
2023-05-04T09:16:00.145Z, 38.6
2023-05-04T09:18:00.132Z, 38.7
2023-05-04T09:20:00.097Z, 38.8
2023-05-04T09:22:00.066Z, 38.7
2023-05-04T09:24:00.068Z, 38.7
2023-05-04T09:26:00.064Z, 38.5
2023-05-04T09:28:00.068Z, 37.6
2023-05-04T09:30:00.074Z, 38.8
2023-05-04T09:32:00.072Z, 38.9
2023-05-04T09:34:00.051Z, 36.9
2023-05-04T09:36:00.071Z, 36.4
2023-05-04T09:38:00.112Z, 37.6
2023-05-04T09:40:00.097Z, 37.6
2023-05-04T09:42:00.124Z, 36
2023-05-04T09:44:00.077Z, 36.2
2023-05-04T09:46:00.102Z, 34.4
2023-05-04T09:48:00.159Z, 35.1
2023-05-04T09:50:00.142Z, 34.4
2023-05-04T09:52:00.116Z, 34.3
2023-05-04T09:54:00.137Z, 33.5
2023-05-04T09:56:02.515Z, 34.1
2023-05-04T09:58:00.126Z, 34
2023-05-04T10:00:00.154Z, 33.5
2023-05-04T10:02:07.466Z, 33.7
2023-05-04T10:04:00.131Z, 33.4
2023-05-04T10:06:00.206Z, 34.2
2023-05-04T10:08:00.124Z, 32.9
2023-05-04T10:10:00.142Z, 33.4
2023-05-04T10:12:00.612Z, 31.6
2023-05-04T10:14:00.131Z, 33.5
2023-05-04T10:16:00.229Z, 33.6
2023-05-04T10:18:00.167Z, 32.5
2023-05-04T10:20:00.092Z, 33.1
2023-05-04T10:22:00.072Z, 33.2
2023-05-04T10:24:00.116Z, 34
2023-05-04T10:26:00.055Z, 35.3
2023-05-04T10:28:00.059Z, 34.5
2023-05-04T10:30:00.103Z, 34.7
2023-05-04T10:32:00.168Z, 36.1
2023-05-04T10:34:00.063Z, 35.6
2023-05-04T10:36:00.127Z, 35
2023-05-04T10:38:00.057Z, 36.4
2023-05-04T10:40:00.086Z, 35.7
2023-05-04T10:42:00.070Z, 34.9
2023-05-04T10:44:00.054Z, 34.7
2023-05-04T10:46:00.081Z, 35.5
2023-05-04T10:48:00.177Z, 36.2
2023-05-04T10:50:00.120Z, 36.5
2023-05-04T10:52:00.100Z, 37.2
2023-05-04T10:54:00.149Z, 37.7
2023-05-04T10:56:00.120Z, 37.1
2023-05-04T10:58:00.131Z, 38.1
2023-05-04T11:00:00.172Z, 38.2
2023-05-04T11:02:00.151Z, 39.3
2023-05-04T11:04:00.152Z, 36.8
2023-05-04T11:06:00.110Z, 37.2
2023-05-04T11:08:00.566Z, 37.5
2023-05-04T11:10:00.109Z, 38.3
2023-05-04T11:12:00.157Z, 38.4
2023-05-04T11:14:00.152Z, 37.7
2023-05-04T11:16:00.191Z, 38.2
2023-05-04T11:18:00.151Z, 38.6
2023-05-04T11:20:00.099Z, 38.9
2023-05-04T11:22:00.075Z, 38.5
2023-05-04T11:24:00.142Z, 38.1
2023-05-04T11:26:00.066Z, 37.7
2023-05-04T11:28:00.143Z, 37.8
2023-05-04T11:30:00.091Z, 37.2
2023-05-04T11:32:00.102Z, 36.2
2023-05-04T11:34:00.062Z, 36.6
2023-05-04T11:36:00.101Z, 38.2
2023-05-04T11:38:00.071Z, 34.6
2023-05-04T11:40:00.071Z, 34.8
2023-05-04T11:42:00.118Z, 34.3
2023-05-04T11:44:00.093Z, 35.8
2023-05-04T11:46:00.153Z, 35.5
2023-05-04T11:48:00.185Z, 35.8
2023-05-04T11:50:00.145Z, 35.9
2023-05-04T11:52:00.120Z, 36.3
2023-05-04T11:54:00.150Z, 37.1
2023-05-04T11:56:00.096Z, 37.5
2023-05-04T11:58:00.146Z, 37.5
2023-05-04T12:00:00.169Z, 36.2
2023-05-04T12:02:00.133Z, 33.9
2023-05-04T12:04:00.346Z, 35.5
2023-05-04T12:06:00.189Z, 35
2023-05-04T12:08:00.124Z, 36
2023-05-04T12:10:00.148Z, 36.5
2023-05-04T12:12:00.151Z, 36.2
2023-05-04T12:14:00.126Z, 36.3
2023-05-04T12:16:00.184Z, 37
2023-05-04T12:18:02.505Z, 38.4
2023-05-04T12:20:00.056Z, 37.8
2023-05-04T12:22:00.051Z, 38.3
2023-05-04T12:24:00.052Z, 38.2
2023-05-04T12:26:00.041Z, 37.6
2023-05-04T12:28:00.054Z, 37.1
2023-05-04T12:30:00.108Z, 36.3
2023-05-04T12:32:00.160Z, 36.1
2023-05-04T12:34:00.049Z, 36.1
2023-05-04T12:36:00.062Z, 35.3
2023-05-04T12:38:00.050Z, 34.8
2023-05-04T12:40:00.049Z, 35
2023-05-04T12:42:00.059Z, 36.1
2023-05-04T12:44:00.054Z, 36.1
2023-05-04T12:46:00.089Z, 34.3
2023-05-04T12:48:00.185Z, 34
2023-05-04T12:50:00.145Z, 34
2023-05-04T12:52:00.128Z, 33.5
2023-05-04T12:54:00.125Z, 34.5
2023-05-04T12:56:00.177Z, 34.8
2023-05-04T12:58:00.124Z, 34.5
2023-05-04T13:00:00.154Z, 34.7
2023-05-04T13:02:00.137Z, 34.9
2023-05-04T13:04:00.154Z, 33
2023-05-04T13:06:00.135Z, 34.3
2023-05-04T13:08:00.148Z, 34.2
2023-05-04T13:10:00.138Z, 33.7
2023-05-04T13:12:00.127Z, 33.5
2023-05-04T13:14:00.123Z, 33.6
2023-05-04T13:16:00.187Z, 33
2023-05-04T13:18:00.226Z, 34.7
2023-05-04T13:20:00.105Z, 34.3
2023-05-04T13:22:00.079Z, 35.5
2023-05-04T13:24:00.085Z, 34.3
2023-05-04T13:26:00.127Z, 33.6
2023-05-04T13:28:00.062Z, 34.7
2023-05-04T13:30:00.129Z, 33.6
2023-05-04T13:32:00.127Z, 33.2
2023-05-04T13:34:00.070Z, 33.2
2023-05-04T13:36:00.109Z, 33.1
2023-05-04T13:38:00.063Z, 33
2023-05-04T13:40:00.066Z, 33.3
2023-05-04T13:42:00.073Z, 32.7
2023-05-04T13:44:00.067Z, 33
2023-05-04T13:46:00.059Z, 33.5
2023-05-04T13:48:00.173Z, 33.4
2023-05-04T13:50:00.149Z, 33.6
2023-05-04T13:52:00.140Z, 34.7
2023-05-04T13:54:02.475Z, 35
2023-05-04T13:56:00.098Z, 35
2023-05-04T13:58:00.136Z, 36.1
2023-05-04T14:00:06.310Z, 35.6
2023-05-04T14:02:00.176Z, 34.4
2023-05-04T14:04:00.118Z, 35.5
2023-05-04T14:06:00.149Z, 35.3
2023-05-04T14:08:00.109Z, 35.6
2023-05-04T14:10:00.187Z, 36.6
2023-05-04T14:12:00.160Z, 35.7
2023-05-04T14:14:00.130Z, 35.7
2023-05-04T14:16:00.203Z, 33.7
2023-05-04T14:18:00.252Z, 32.5
2023-05-04T14:20:00.059Z, 33.9
2023-05-04T14:22:00.041Z, 34.6
2023-05-04T14:24:00.064Z, 35.1
2023-05-04T14:26:00.027Z, 34.7
2023-05-04T14:28:00.051Z, 35.1
2023-05-04T14:30:00.062Z, 34.1
2023-05-04T14:32:00.065Z, 33.4
2023-05-04T14:34:00.041Z, 34.2
2023-05-04T14:36:00.083Z, 35
2023-05-04T14:38:00.026Z, 36.2
2023-05-04T14:40:00.053Z, 35.7
2023-05-04T14:42:00.046Z, 35.1
2023-05-04T14:44:00.045Z, 34.3
2023-05-04T14:46:00.149Z, 34.8
2023-05-04T14:48:00.145Z, 36
2023-05-04T14:50:00.144Z, 36
2023-05-04T14:52:00.116Z, 37.1
2023-05-04T14:54:00.137Z, 36.8
2023-05-04T14:56:00.129Z, 37.1
2023-05-04T14:58:00.132Z, 36.3
2023-05-04T15:00:00.164Z, 35.2
2023-05-04T15:02:00.143Z, 37
2023-05-04T15:04:00.271Z, 36.3
2023-05-04T15:06:00.169Z, 36.4
2023-05-04T15:08:00.097Z, 37.1
2023-05-04T15:10:00.128Z, 36.5
2023-05-04T15:12:00.156Z, 36.2
2023-05-04T15:14:00.119Z, 35.5
2023-05-04T15:16:00.149Z, 34.4
2023-05-04T15:18:00.244Z, 35.8
2023-05-04T15:20:00.076Z, 36.4
2023-05-04T15:22:00.061Z, 34.2
2023-05-04T15:24:00.208Z, 33.7
2023-05-04T15:26:00.064Z, 33
2023-05-04T15:28:00.093Z, 33.9
2023-05-04T15:30:00.066Z, 33.2
2023-05-04T15:32:00.231Z, 34.2
2023-05-04T15:34:00.045Z, 34.7
2023-05-04T15:36:00.066Z, 35.4
2023-05-04T15:38:00.063Z, 33.4
2023-05-04T15:40:03.715Z, 33.3
2023-05-04T15:42:00.066Z, 33.9
2023-05-04T15:44:00.046Z, 35.6
2023-05-04T15:46:00.043Z, 35.2
2023-05-04T15:48:00.297Z, 35.3
2023-05-04T15:50:00.139Z, 35.2
2023-05-04T15:52:00.130Z, 35.3
2023-05-04T15:54:00.144Z, 35.6
2023-05-04T15:56:00.119Z, 36.7
2023-05-04T15:58:00.124Z, 36.5
2023-05-04T16:00:00.134Z, 36.7
2023-05-04T16:02:00.121Z, 37
2023-05-04T16:04:00.262Z, 36.1
2023-05-04T16:06:00.149Z, 37.7
2023-05-04T16:08:00.136Z, 38.5
2023-05-04T16:10:00.607Z, 36.7
2023-05-04T16:12:00.123Z, 37.3
2023-05-04T16:14:00.099Z, 37.6
2023-05-04T16:16:00.117Z, 36.6
2023-05-04T16:18:00.161Z, 37.1
2023-05-04T16:20:00.109Z, 37.2
2023-05-04T16:22:00.073Z, 37.5
2023-05-04T16:24:00.086Z, 37.6
2023-05-04T16:26:00.059Z, 37.8
2023-05-04T16:28:00.058Z, 37.2
2023-05-04T16:30:00.165Z, 38.2
2023-05-04T16:32:00.060Z, 39.4
2023-05-04T16:34:00.047Z, 39
2023-05-04T16:36:00.085Z, 39.7
2023-05-04T16:38:00.317Z, 39.6
2023-05-04T16:40:00.129Z, 40.6
2023-05-04T16:42:00.067Z, 40.7
2023-05-04T16:44:00.127Z, 41.2
2023-05-04T16:46:00.116Z, 41.3
2023-05-04T16:48:00.180Z, 41.2
2023-05-04T16:50:00.130Z, 41.4
2023-05-04T16:52:00.138Z, 40.4
2023-05-04T16:54:00.143Z, 40.4
2023-05-04T16:56:00.135Z, 39.4
2023-05-04T16:58:00.146Z, 39.7
2023-05-04T17:00:00.153Z, 40.5
2023-05-04T17:02:00.172Z, 40.5
2023-05-04T17:04:00.315Z, 40.7
2023-05-04T17:06:00.154Z, 40.8
2023-05-04T17:08:00.184Z, 40.2
2023-05-04T17:10:00.156Z, 40.5
2023-05-04T17:12:00.229Z, 39.4
2023-05-04T17:14:00.137Z, 39.3
2023-05-04T17:16:00.181Z, 40.2
2023-05-04T17:18:00.163Z, 40.2
2023-05-04T17:20:00.051Z, 40.3
2023-05-04T17:22:00.044Z, 40.9
2023-05-04T17:24:00.052Z, 41
2023-05-04T17:26:00.035Z, 40.9
2023-05-04T17:28:00.059Z, 41
2023-05-04T17:30:00.052Z, 41.1
2023-05-04T17:32:00.185Z, 40.6
2023-05-04T17:34:00.061Z, 41
2023-05-04T17:36:00.056Z, 41.2
2023-05-04T17:38:00.041Z, 41.6
2023-05-04T17:40:00.053Z, 40.8
2023-05-04T17:42:00.090Z, 40.5
2023-05-04T17:44:00.054Z, 39.9
2023-05-04T17:46:00.102Z, 39.4
2023-05-04T17:52:00.102Z, 39.4
2023-05-04T17:54:00.123Z, 40.2
2023-05-04T17:56:00.106Z, 40.6
2023-05-04T17:58:00.139Z, 40.1
2023-05-04T18:00:00.205Z, 41.1
2023-05-04T18:02:00.235Z, 41.4
2023-05-04T18:04:00.200Z, 41.2
2023-05-04T18:06:00.162Z, 42.2
2023-05-04T18:08:00.151Z, 42.1
2023-05-04T18:10:00.144Z, 42.3
2023-05-04T18:12:00.152Z, 43.3
2023-05-04T18:14:00.133Z, 43.7
2023-05-04T18:16:00.194Z, 43.9
2023-05-04T18:18:00.216Z, 46.4
2023-05-04T18:20:00.099Z, 49.5
2023-05-04T18:22:00.103Z, 51.4
2023-05-04T18:24:00.091Z, 52.8
2023-05-04T18:26:00.061Z, 53.3
2023-05-04T18:28:00.048Z, 54.7
2023-05-04T18:30:00.065Z, 56.7
2023-05-04T18:32:00.153Z, 57.7
2023-05-04T18:34:00.064Z, 58.5
2023-05-04T18:36:00.068Z, 58.9
2023-05-04T18:38:00.099Z, 59.3
2023-05-04T18:40:00.066Z, 60.6
2023-05-04T18:42:00.058Z, 61.2
2023-05-04T18:44:00.111Z, 60.9
2023-05-04T18:46:00.116Z, 60.8
2023-05-04T18:48:00.166Z, 61.6
2023-05-04T18:50:00.044Z, 62.5
2023-05-04T18:52:00.158Z, 62.7
2023-05-04T18:54:00.153Z, 62.7
2023-05-04T18:56:00.140Z, 62.4
2023-05-04T18:58:00.149Z, 61.9
2023-05-04T19:00:00.186Z, 62.4
2023-05-04T19:02:00.162Z, 62.7
2023-05-04T19:04:00.237Z, 62.8
2023-05-04T19:06:00.197Z, 63
2023-05-04T19:08:00.124Z, 63.3
2023-05-04T19:10:00.184Z, 63.4
2023-05-04T19:12:00.136Z, 64.2
2023-05-04T19:14:00.118Z, 64
2023-05-04T19:16:00.179Z, 63.5
2023-05-04T19:18:00.133Z, 63.2
2023-05-04T19:20:00.168Z, 62.3
2023-05-04T19:22:00.071Z, 62.6
2023-05-04T19:24:00.090Z, 62.8
2023-05-04T19:26:00.084Z, 63.4
2023-05-04T19:28:00.057Z, 63.7
2023-05-04T19:30:00.124Z, 63.8
2023-05-04T19:32:05.535Z, 63.8
2023-05-04T19:34:00.059Z, 63.8
2023-05-04T19:36:00.070Z, 64.3
2023-05-04T19:38:00.046Z, 63.8
2023-05-04T19:40:00.056Z, 63.1
2023-05-04T19:42:00.144Z, 63.6
2023-05-04T19:44:00.056Z, 64
2023-05-04T19:46:00.051Z, 64.3
2023-05-04T19:48:00.153Z, 64.7
2023-05-04T19:50:00.049Z, 65.1
2023-05-04T19:52:00.125Z, 66
2023-05-04T19:54:00.146Z, 66.8
2023-05-04T19:56:00.185Z, 65.8
2023-05-04T19:58:00.129Z, 65.3
2023-05-04T20:00:00.151Z, 65.6
2023-05-04T20:02:00.198Z, 65.4
2023-05-04T20:04:00.133Z, 65.9
2023-05-04T20:06:00.160Z, 65.7
2023-05-04T20:08:02.127Z, 65.7
2023-05-04T20:10:00.190Z, 65.5
2023-05-04T20:12:00.167Z, 65.4
2023-05-04T20:14:00.162Z, 64.9
2023-05-04T20:16:00.131Z, 65
2023-05-04T20:18:00.208Z, 65.3
2023-05-04T20:20:00.151Z, 63.8
2023-05-04T20:22:00.072Z, 63.9
2023-05-04T20:24:00.108Z, 63.5
2023-05-04T20:26:00.055Z, 63.9
2023-05-04T20:28:00.039Z, 64.2
2023-05-04T20:30:00.067Z, 63.6
2023-05-04T20:32:00.103Z, 62.9
2023-05-04T20:34:00.094Z, 63.7
2023-05-04T20:36:00.075Z, 63
2023-05-04T20:38:00.048Z, 64.2
2023-05-04T20:40:00.055Z, 64.6
2023-05-04T20:42:00.048Z, 65.7
2023-05-04T20:44:00.116Z, 65.8
2023-05-04T20:46:00.077Z, 65.5
2023-05-04T20:48:00.098Z, 65.7
2023-05-04T20:50:00.058Z, 65.4
2023-05-04T20:52:00.121Z, 65.8
2023-05-04T20:54:00.127Z, 65.8
2023-05-04T20:56:00.112Z, 65.8
2023-05-04T20:58:00.126Z, 65.1
2023-05-04T21:00:00.132Z, 65.4
2023-05-04T21:02:00.091Z, 65.2
2023-05-04T21:04:00.270Z, 64.4
2023-05-04T21:06:00.133Z, 65.7
2023-05-04T21:08:00.105Z, 65.7
2023-05-04T21:10:00.182Z, 65.9
2023-05-04T21:12:00.140Z, 66
2023-05-04T21:14:00.109Z, 66.3
2023-05-04T21:16:00.158Z, 67.4
2023-05-04T21:18:00.172Z, 67.5
2023-05-04T21:20:00.146Z, 68.3
2023-05-04T21:22:00.085Z, 68.6
2023-05-04T21:24:00.111Z, 68.9
2023-05-04T21:26:00.079Z, 69.4
2023-05-04T21:28:00.056Z, 70.1
2023-05-04T21:30:00.137Z, 71
2023-05-04T21:32:00.098Z, 71.3
2023-05-04T21:34:00.057Z, 72.3
2023-05-04T21:36:00.082Z, 72.1
2023-05-04T21:38:00.045Z, 72.2
2023-05-04T21:40:00.061Z, 70.8
2023-05-04T21:42:00.061Z, 71.3
2023-05-04T21:44:00.249Z, 72.1
2023-05-04T21:46:00.049Z, 72.4
2023-05-04T21:48:00.110Z, 72.6
2023-05-04T21:50:00.049Z, 72.6
2023-05-04T21:52:00.104Z, 73.7
2023-05-04T21:54:00.138Z, 74.4
2023-05-04T21:56:00.122Z, 75.1
2023-05-04T21:58:00.104Z, 74.9
2023-05-04T22:00:00.155Z, 74.8
2023-05-04T22:02:00.129Z, 74.8
2023-05-04T22:04:00.189Z, 74.8
2023-05-04T22:06:00.125Z, 75.6
2023-05-04T22:08:00.121Z, 75.8
2023-05-04T22:10:00.161Z, 76.6
2023-05-04T22:12:00.147Z, 76.6
2023-05-04T22:14:00.134Z, 76.8
2023-05-04T22:16:00.158Z, 76.8
2023-05-04T22:18:00.175Z, 76.8
2023-05-04T22:20:00.163Z, 76.6
2023-05-04T22:22:00.061Z, 76.3
2023-05-04T22:24:00.087Z, 76.2
2023-05-04T22:26:00.046Z, 76.3
2023-05-04T22:28:00.063Z, 76.5
2023-05-04T22:30:00.105Z, 76.8
2023-05-04T22:32:00.056Z, 77.3
2023-05-04T22:34:00.060Z, 77.9
2023-05-04T22:36:00.063Z, 78.2
2023-05-04T22:38:00.043Z, 78.4
2023-05-04T22:40:00.044Z, 78.1
2023-05-04T22:42:00.054Z, 77.5
2023-05-04T22:44:00.092Z, 76.5
2023-05-04T22:46:00.098Z, 75.7
2023-05-04T22:48:00.104Z, 75.3
2023-05-04T22:50:00.047Z, 74.7
2023-05-04T22:52:00.112Z, 74.2
2023-05-04T22:54:00.108Z, 73.9
2023-05-04T22:56:00.130Z, 74.2
2023-05-04T22:58:00.137Z, 74.4
2023-05-04T23:00:00.175Z, 74.7
2023-05-04T23:02:00.335Z, 74.8
2023-05-04T23:04:00.139Z, 74.4
2023-05-04T23:06:00.133Z, 73.6
2023-05-04T23:08:00.116Z, 74.2
2023-05-04T23:10:00.226Z, 74.4
2023-05-04T23:12:00.146Z, 74.6
2023-05-04T23:14:00.135Z, 74.2
2023-05-04T23:16:00.160Z, 74.1
2023-05-04T23:18:00.207Z, 72.9
2023-05-04T23:20:00.188Z, 72.6
2023-05-04T23:22:00.070Z, 72.1
2023-05-04T23:24:00.060Z, 72.4
2023-05-04T23:26:00.054Z, 72.7
2023-05-04T23:28:00.034Z, 73.4
2023-05-04T23:30:00.093Z, 73.9
2023-05-04T23:32:00.149Z, 74.3
2023-05-04T23:34:00.054Z, 74.8
2023-05-04T23:36:00.084Z, 75
2023-05-04T23:38:00.066Z, 75.4
2023-05-04T23:40:00.049Z, 75.8
2023-05-04T23:42:00.047Z, 76.2
2023-05-04T23:44:00.063Z, 76.9
2023-05-04T23:46:00.179Z, 77.1
2023-05-04T23:48:00.069Z, 77.5
2023-05-04T23:50:00.054Z, 78.2
2023-05-04T23:52:00.121Z, 77.7
2023-05-04T23:54:00.127Z, 77.5
2023-05-04T23:56:02.684Z, 77.7
2023-05-04T23:58:00.134Z, 77.8
